KLAS/LAS METAR and TAF weather

Enter ICAO airport designator
Station Type Date Time Source
KLAS METAR 2019/04/25 15:56 UTC NOAA

KLAS 251556Z VRB03KT 10SM FEW110 26/03 A2997 RMK AO2 SLP124 T02610028


Station Type Date Time Source
KLAS Decoded METAR 2019/04/25 15:56 UTC NOAA

MCCARRAN INTERNATIONAL AIRPORT , NV, United States (KLAS) 36-07N 115-16W 636M
Apr 25, 2019 - 11:56 AM EDT / 2019.04.25 1556 UTC
Wind: Variable at 3 MPH (3 KT):0
Visibility: 10 mile(s):0
Sky conditions: mostly clear
Temperature: 79.0 F (26.1 C)
Dew Point: 37.0 F (2.8 C)
Relative Humidity: 22%
Pressure (altimeter): 29.97 in. Hg (1014 hPa)
ob: KLAS 251556Z VRB03KT 10SM FEW110 26/03 A2997 RMK AO2 SLP124 T02610028
cycle: 16

Station Type Date Time Source
KLAS TAF 2019/04/25 15:45 UTC NOAA

KLAS 251442Z 2515/2618 VRB05KT P6SM SKC
FM251900 08006KT P6SM SCT110
FM260100 20011KT P6SM SCT110
FM260500 20011KT P6SM FEW110
FM260900 20011KT P6SM SKC

Example: see airport list